sensor_id;sensor_type;location;lat;lon;timestamp;pressure;altitude;pressure_sealevel;temperature;humidity
56052;BME280;41919;42.648;23.384;2022-08-21T00:02:23;94012.25;;;20.58;81.63
56052;BME280;41919;42.648;23.384;2022-08-21T00:04:50;94056.78;;;20.95;81.31
56052;BME280;41919;42.648;23.384;2022-08-21T00:07:17;93993.03;;;20.71;81.34
56052;BME280;41919;42.648;23.384;2022-08-21T00:09:43;94030.50;;;20.70;82.54
56052;BME280;41919;42.648;23.384;2022-08-21T00:12:09;93986.28;;;20.21;84.15
56052;BME280;41919;42.648;23.384;2022-08-21T00:14:35;94022.13;;;20.52;84.48
56052;BME280;41919;42.648;23.384;2022-08-21T00:17:01;94046.59;;;20.79;83.82
56052;BME280;41919;42.648;23.384;2022-08-21T00:19:26;93995.50;;;20.57;83.12
56052;BME280;41919;42.648;23.384;2022-08-21T00:21:53;94039.28;;;20.94;82.83
56052;BME280;41919;42.648;23.384;2022-08-21T00:24:20;94028.91;;;20.98;81.75
56052;BME280;41919;42.648;23.384;2022-08-21T00:26:46;93978.06;;;20.51;82.71
56052;BME280;41919;42.648;23.384;2022-08-21T00:29:13;93978.88;;;20.52;82.52
56052;BME280;41919;42.648;23.384;2022-08-21T00:31:39;93989.00;;;20.45;82.94
56052;BME280;41919;42.648;23.384;2022-08-21T00:34:05;93979.31;;;20.30;83.35
56052;BME280;41919;42.648;23.384;2022-08-21T00:36:32;93993.84;;;20.03;84.78
56052;BME280;41919;42.648;23.384;2022-08-21T00:38:57;94012.00;;;20.25;86.24
56052;BME280;41919;42.648;23.384;2022-08-21T00:41:23;94012.09;;;20.10;86.17
56052;BME280;41919;42.648;23.384;2022-08-21T00:43:49;94031.59;;;20.29;84.58
56052;BME280;41919;42.648;23.384;2022-08-21T00:46:15;94046.06;;;20.08;84.02
56052;BME280;41919;42.648;23.384;2022-08-21T00:48:41;93979.41;;;19.80;84.72
56052;BME280;41919;42.648;23.384;2022-08-21T00:51:10;94048.41;;;20.14;85.27
56052;BME280;41919;42.648;23.384;2022-08-21T00:53:40;94041.81;;;20.07;86.02
56052;BME280;41919;42.648;23.384;2022-08-21T00:56:09;93998.81;;;19.75;85.53
56052;BME280;41919;42.648;23.384;2022-08-21T00:58:35;93994.59;;;19.59;87.06
56052;BME280;41919;42.648;23.384;2022-08-21T01:01:04;93976.06;;;19.54;87.69
56052;BME280;41919;42.648;23.384;2022-08-21T01:03:30;93971.22;;;19.71;86.99
56052;BME280;41919;42.648;23.384;2022-08-21T01:05:56;93975.00;;;20.05;86.01
56052;BME280;41919;42.648;23.384;2022-08-21T01:08:22;93950.53;;;20.13;85.06
56052;BME280;41919;42.648;23.384;2022-08-21T01:10:49;93955.66;;;20.33;83.70
56052;BME280;41919;42.648;23.384;2022-08-21T01:13:17;93958.97;;;20.49;82.34
56052;BME280;41919;42.648;23.384;2022-08-21T01:15:45;94009.06;;;20.90;81.49
56052;BME280;41919;42.648;23.384;2022-08-21T01:18:13;94012.72;;;20.94;82.15
56052;BME280;41919;42.648;23.384;2022-08-21T01:20:43;94017.97;;;20.75;82.20
56052;BME280;41919;42.648;23.384;2022-08-21T01:23:09;93999.53;;;20.55;82.41
56052;BME280;41919;42.648;23.384;2022-08-21T01:25:35;94009.06;;;20.61;82.04
56052;BME280;41919;42.648;23.384;2022-08-21T01:28:06;93955.88;;;20.08;82.02
56052;BME280;41919;42.648;23.384;2022-08-21T01:30:35;94001.69;;;20.48;82.04
56052;BME280;41919;42.648;23.384;2022-08-21T01:33:01;93954.94;;;20.23;81.91
56052;BME280;41919;42.648;23.384;2022-08-21T01:35:27;93959.44;;;20.27;81.92
56052;BME280;41919;42.648;23.384;2022-08-21T01:37:53;94008.88;;;20.47;81.69
56052;BME280;41919;42.648;23.384;2022-08-21T01:40:19;93955.44;;;19.95;81.99
56052;BME280;41919;42.648;23.384;2022-08-21T01:42:45;94016.03;;;20.17;83.77
56052;BME280;41919;42.648;23.384;2022-08-21T01:45:12;93999.31;;;20.17;84.71
56052;BME280;41919;42.648;23.384;2022-08-21T01:47:38;93958.84;;;20.01;84.27
56052;BME280;41919;42.648;23.384;2022-08-21T01:50:07;93975.13;;;20.24;83.94
56052;BME280;41919;42.648;23.384;2022-08-21T01:52:33;94018.09;;;20.60;82.98
56052;BME280;41919;42.648;23.384;2022-08-21T01:54:58;93958.31;;;20.33;82.11
56052;BME280;41919;42.648;23.384;2022-08-21T01:57:24;94006.63;;;20.65;81.52
56052;BME280;41919;42.648;23.384;2022-08-21T01:59:49;93967.31;;;20.37;82.17
56052;BME280;41919;42.648;23.384;2022-08-21T02:02:15;93896.34;;;20.19;83.52
56052;BME280;41919;42.648;23.384;2022-08-21T02:04:40;94022.28;;;21.20;80.28
56052;BME280;41919;42.648;23.384;2022-08-21T02:07:06;93901.97;;;20.42;78.84
56052;BME280;41919;42.648;23.384;2022-08-21T02:09:32;94016.22;;;21.14;78.53
56052;BME280;41919;42.648;23.384;2022-08-21T02:11:58;93966.03;;;20.64;78.58
56052;BME280;41919;42.648;23.384;2022-08-21T02:14:24;94012.44;;;20.67;80.09
56052;BME280;41919;42.648;23.384;2022-08-21T02:16:50;94017.59;;;20.53;81.05
56052;BME280;41919;42.648;23.384;2022-08-21T02:19:16;94027.09;;;20.59;80.81
56052;BME280;41919;42.648;23.384;2022-08-21T02:21:41;94011.81;;;20.46;80.90
56052;BME280;41919;42.648;23.384;2022-08-21T02:24:07;94028.44;;;20.22;82.96
56052;BME280;41919;42.648;23.384;2022-08-21T02:26:33;94035.97;;;20.10;84.51
56052;BME280;41919;42.648;23.384;2022-08-21T02:29:00;94005.31;;;19.93;83.37
56052;BME280;41919;42.648;23.384;2022-08-21T02:31:25;94047.44;;;20.00;84.11
56052;BME280;41919;42.648;23.384;2022-08-21T02:33:51;94051.00;;;19.75;85.77
56052;BME280;41919;42.648;23.384;2022-08-21T02:36:17;93993.41;;;19.31;86.85
56052;BME280;41919;42.648;23.384;2022-08-21T02:38:43;93994.50;;;19.25;87.56
56052;BME280;41919;42.648;23.384;2022-08-21T02:41:14;94031.47;;;19.55;87.36
56052;BME280;41919;42.648;23.384;2022-08-21T02:43:41;94038.91;;;19.48;87.94
56052;BME280;41919;42.648;23.384;2022-08-21T02:46:08;94036.31;;;19.43;88.44
56052;BME280;41919;42.648;23.384;2022-08-21T02:48:34;94028.97;;;19.19;90.76
56052;BME280;41919;42.648;23.384;2022-08-21T02:53:28;94039.47;;;19.40;88.41
56052;BME280;41919;42.648;23.384;2022-08-21T02:55:56;94045.88;;;19.34;88.65
56052;BME280;41919;42.648;23.384;2022-08-21T02:58:25;94004.69;;;18.87;89.43
56052;BME280;41919;42.648;23.384;2022-08-21T03:00:52;94002.31;;;18.70;90.31
56052;BME280;41919;42.648;23.384;2022-08-21T03:03:17;94049.72;;;18.82;90.46
56052;BME280;41919;42.648;23.384;2022-08-21T03:05:43;94044.38;;;18.71;90.86
56052;BME280;41919;42.648;23.384;2022-08-21T03:08:11;94029.59;;;18.55;91.32
56052;BME280;41919;42.648;23.384;2022-08-21T03:10:39;93987.28;;;18.24;91.09
56052;BME280;41919;42.648;23.384;2022-08-21T03:13:05;93996.53;;;18.32;90.87
56052;BME280;41919;42.648;23.384;2022-08-21T03:15:32;94042.81;;;18.45;91.82
56052;BME280;41919;42.648;23.384;2022-08-21T03:17:58;94031.72;;;18.53;91.30
56052;BME280;41919;42.648;23.384;2022-08-21T03:20:26;94031.97;;;18.56;91.49
56052;BME280;41919;42.648;23.384;2022-08-21T03:22:53;93995.75;;;18.36;91.93
56052;BME280;41919;42.648;23.384;2022-08-21T03:25:23;94027.47;;;18.57;91.88
56052;BME280;41919;42.648;23.384;2022-08-21T03:27:48;94032.78;;;18.62;92.39
56052;BME280;41919;42.648;23.384;2022-08-21T03:30:16;94037.50;;;18.60;91.13
56052;BME280;41919;42.648;23.384;2022-08-21T03:32:42;94035.41;;;18.62;91.05
56052;BME280;41919;42.648;23.384;2022-08-21T03:35:08;93997.88;;;18.39;90.66
56052;BME280;41919;42.648;23.384;2022-08-21T03:37:35;94036.19;;;18.73;90.14
56052;BME280;41919;42.648;23.384;2022-08-21T03:40:02;93987.53;;;18.53;89.07
56052;BME280;41919;42.648;23.384;2022-08-21T03:42:27;94053.59;;;19.15;95.33
56052;BME280;41919;42.648;23.384;2022-08-21T03:44:52;94028.63;;;19.36;89.75
56052;BME280;41919;42.648;23.384;2022-08-21T03:47:18;94036.44;;;19.77;87.13
56052;BME280;41919;42.648;23.384;2022-08-21T03:49:43;94019.22;;;20.14;83.78
56052;BME280;41919;42.648;23.384;2022-08-21T03:52:09;93993.44;;;20.20;80.63
56052;BME280;41919;42.648;23.384;2022-08-21T03:54:34;94009.63;;;20.18;80.79
56052;BME280;41919;42.648;23.384;2022-08-21T03:57:00;94007.84;;;20.09;82.29
56052;BME280;41919;42.648;23.384;2022-08-21T03:59:25;94042.25;;;20.19;82.62
56052;BME280;41919;42.648;23.384;2022-08-21T04:01:54;94053.16;;;20.17;82.87
56052;BME280;41919;42.648;23.384;2022-08-21T04:04:20;93985.28;;;19.67;82.99
56052;BME280;41919;42.648;23.384;2022-08-21T04:06:46;94028.72;;;19.81;83.48
56052;BME280;41919;42.648;23.384;2022-08-21T04:09:11;94051.25;;;19.78;84.74
56052;BME280;41919;42.648;23.384;2022-08-21T04:11:37;94054.22;;;19.62;85.31
56052;BME280;41919;42.648;23.384;2022-08-21T04:14:02;94043.47;;;19.43;86.42
56052;BME280;41919;42.648;23.384;2022-08-21T04:16:28;94054.28;;;19.51;86.20
56052;BME280;41919;42.648;23.384;2022-08-21T04:18:53;93939.84;;;18.84;86.01
56052;BME280;41919;42.648;23.384;2022-08-21T04:21:19;94050.63;;;19.37;87.61
56052;BME280;41919;42.648;23.384;2022-08-21T04:23:44;94007.22;;;19.17;87.08
56052;BME280;41919;42.648;23.384;2022-08-21T04:26:10;94050.84;;;19.46;86.98
56052;BME280;41919;42.648;23.384;2022-08-21T04:28:36;94034.25;;;19.25;87.11
56052;BME280;41919;42.648;23.384;2022-08-21T04:31:01;94053.34;;;19.22;87.82
56052;BME280;41919;42.648;23.384;2022-08-21T04:33:27;94035.09;;;18.94;89.12
56052;BME280;41919;42.648;23.384;2022-08-21T04:35:52;94055.78;;;18.97;89.98
56052;BME280;41919;42.648;23.384;2022-08-21T04:38:18;93985.94;;;18.52;90.61
56052;BME280;41919;42.648;23.384;2022-08-21T04:40:44;94047.03;;;18.97;90.92
56052;BME280;41919;42.648;23.384;2022-08-21T04:43:09;94044.34;;;19.12;90.44
56052;BME280;41919;42.648;23.384;2022-08-21T04:45:39;94058.88;;;19.25;88.87
56052;BME280;41919;42.648;23.384;2022-08-21T04:48:08;94022.59;;;19.15;88.78
56052;BME280;41919;42.648;23.384;2022-08-21T04:51:19;94045.81;;;19.44;87.59
56052;BME280;41919;42.648;23.384;2022-08-21T04:53:26;94056.31;;;19.70;86.38
56052;BME280;41919;42.648;23.384;2022-08-21T04:55:56;94057.31;;;19.89;83.83
56052;BME280;41919;42.648;23.384;2022-08-21T04:58:25;94044.31;;;19.88;82.86
56052;BME280;41919;42.648;23.384;2022-08-21T05:00:54;94047.44;;;20.00;81.06
56052;BME280;41919;42.648;23.384;2022-08-21T05:03:19;94048.16;;;20.11;80.63
56052;BME280;41919;42.648;23.384;2022-08-21T05:05:46;94046.16;;;20.32;79.03
56052;BME280;41919;42.648;23.384;2022-08-21T05:08:14;93991.00;;;20.29;79.43
56052;BME280;41919;42.648;23.384;2022-08-21T05:10:41;94002.03;;;20.75;77.10
56052;BME280;41919;42.648;23.384;2022-08-21T05:13:09;94015.31;;;21.24;75.96
56052;BME280;41919;42.648;23.384;2022-08-21T05:15:36;93995.53;;;21.35;75.07
56052;BME280;41919;42.648;23.384;2022-08-21T05:18:02;94041.03;;;22.15;73.42
56052;BME280;41919;42.648;23.384;2022-08-21T05:20:28;93990.63;;;22.56;70.42
56052;BME280;41919;42.648;23.384;2022-08-21T05:22:54;94022.34;;;23.46;68.16
56052;BME280;41919;42.648;23.384;2022-08-21T05:25:19;94027.56;;;24.15;65.40
56052;BME280;41919;42.648;23.384;2022-08-21T05:27:45;94031.53;;;24.40;63.43
56052;BME280;41919;42.648;23.384;2022-08-21T05:30:11;94042.41;;;24.44;64.53
56052;BME280;41919;42.648;23.384;2022-08-21T05:32:37;94042.94;;;24.32;63.69
56052;BME280;41919;42.648;23.384;2022-08-21T05:35:04;94037.34;;;24.42;63.10
56052;BME280;41919;42.648;23.384;2022-08-21T05:37:30;94032.34;;;24.63;62.66
56052;BME280;41919;42.648;23.384;2022-08-21T05:39:55;94030.03;;;24.71;63.49
56052;BME280;41919;42.648;23.384;2022-08-21T05:42:21;94030.13;;;25.59;61.35
56052;BME280;41919;42.648;23.384;2022-08-21T05:44:46;94022.81;;;26.17;58.76
56052;BME280;41919;42.648;23.384;2022-08-21T05:47:12;93993.97;;;26.58;57.84
56052;BME280;41919;42.648;23.384;2022-08-21T05:49:37;94020.78;;;27.31;55.77
56052;BME280;41919;42.648;23.384;2022-08-21T05:52:04;94005.53;;;27.53;54.17
56052;BME280;41919;42.648;23.384;2022-08-21T05:54:29;94017.72;;;28.01;52.45
56052;BME280;41919;42.648;23.384;2022-08-21T05:56:56;94011.88;;;28.41;51.85
56052;BME280;41919;42.648;23.384;2022-08-21T05:59:21;93974.84;;;28.13;51.57
56052;BME280;41919;42.648;23.384;2022-08-21T06:01:47;94031.16;;;28.22;50.26
56052;BME280;41919;42.648;23.384;2022-08-21T06:04:12;94017.25;;;27.99;50.31
56052;BME280;41919;42.648;23.384;2022-08-21T06:06:38;93971.78;;;27.43;51.05
56052;BME280;41919;42.648;23.384;2022-08-21T06:09:04;93991.59;;;27.30;52.15
56052;BME280;41919;42.648;23.384;2022-08-21T06:11:31;93978.66;;;27.62;50.88
56052;BME280;41919;42.648;23.384;2022-08-21T06:13:58;94022.00;;;28.44;50.29
56052;BME280;41919;42.648;23.384;2022-08-21T06:16:25;93988.59;;;28.66;48.60
56052;BME280;41919;42.648;23.384;2022-08-21T06:18:51;93978.97;;;29.36;47.59
56052;BME280;41919;42.648;23.384;2022-08-21T06:21:17;94010.53;;;30.13;46.02
56052;BME280;41919;42.648;23.384;2022-08-21T06:23:43;94011.38;;;30.41;44.69
56052;BME280;41919;42.648;23.384;2022-08-21T06:26:10;94020.41;;;30.33;42.89
56052;BME280;41919;42.648;23.384;2022-08-21T06:28:36;94003.63;;;30.68;43.51
56052;BME280;41919;42.648;23.384;2022-08-21T06:31:14;94009.81;;;31.29;41.28
56052;BME280;41919;42.648;23.384;2022-08-21T06:33:40;93967.38;;;31.77;39.30
56052;BME280;41919;42.648;23.384;2022-08-21T06:36:05;94016.09;;;32.94;37.30
56052;BME280;41919;42.648;23.384;2022-08-21T06:38:31;94012.84;;;33.73;35.26
56052;BME280;41919;42.648;23.384;2022-08-21T06:40:56;93989.81;;;34.17;34.58
56052;BME280;41919;42.648;23.384;2022-08-21T06:43:22;94003.91;;;34.94;33.09
56052;BME280;41919;42.648;23.384;2022-08-21T06:45:47;93980.66;;;35.38;32.41
56052;BME280;41919;42.648;23.384;2022-08-21T06:48:13;93983.00;;;35.91;31.15
56052;BME280;41919;42.648;23.384;2022-08-21T06:50:38;94011.66;;;36.44;30.72
56052;BME280;41919;42.648;23.384;2022-08-21T06:53:07;93991.19;;;36.79;29.17
56052;BME280;41919;42.648;23.384;2022-08-21T06:55:33;93987.28;;;36.73;29.16
56052;BME280;41919;42.648;23.384;2022-08-21T06:57:59;94006.53;;;36.31;29.42
56052;BME280;41919;42.648;23.384;2022-08-21T07:00:25;93987.69;;;36.01;29.59
56052;BME280;41919;42.648;23.384;2022-08-21T07:02:50;94031.31;;;36.16;29.11
56052;BME280;41919;42.648;23.384;2022-08-21T07:05:16;94031.56;;;35.92;30.17
56052;BME280;41919;42.648;23.384;2022-08-21T07:07:42;94003.00;;;36.20;29.68
56052;BME280;41919;42.648;23.384;2022-08-21T07:10:08;93983.72;;;35.81;29.47
56052;BME280;41919;42.648;23.384;2022-08-21T07:12:33;94024.34;;;35.66;30.95
56052;BME280;41919;42.648;23.384;2022-08-21T07:14:59;94004.84;;;36.12;30.15
56052;BME280;41919;42.648;23.384;2022-08-21T07:17:24;94034.53;;;36.28;29.91
56052;BME280;41919;42.648;23.384;2022-08-21T07:19:50;93987.81;;;35.15;30.97
56052;BME280;41919;42.648;23.384;2022-08-21T07:22:18;94004.66;;;35.32;32.15
56052;BME280;41919;42.648;23.384;2022-08-21T07:24:45;93993.78;;;35.80;30.33
56052;BME280;41919;42.648;23.384;2022-08-21T07:27:11;94006.44;;;35.58;30.73
56052;BME280;41919;42.648;23.384;2022-08-21T07:29:36;94021.59;;;35.63;30.54
56052;BME280;41919;42.648;23.384;2022-08-21T07:32:02;93962.19;;;35.13;30.78
56052;BME280;41919;42.648;23.384;2022-08-21T07:34:28;94011.13;;;33.65;33.23
56052;BME280;41919;42.648;23.384;2022-08-21T07:36:54;93982.63;;;33.75;33.59
56052;BME280;41919;42.648;23.384;2022-08-21T07:39:19;94014.44;;;33.78;34.69
56052;BME280;41919;42.648;23.384;2022-08-21T07:41:44;93974.47;;;33.02;34.61
56052;BME280;41919;42.648;23.384;2022-08-21T07:44:10;94014.13;;;32.52;36.58
56052;BME280;41919;42.648;23.384;2022-08-21T07:46:35;94003.28;;;33.10;35.22
56052;BME280;41919;42.648;23.384;2022-08-21T07:49:01;94001.28;;;33.30;34.75
56052;BME280;41919;42.648;23.384;2022-08-21T07:51:27;93991.13;;;33.24;34.12
56052;BME280;41919;42.648;23.384;2022-08-21T07:53:56;94003.59;;;33.09;34.74
56052;BME280;41919;42.648;23.384;2022-08-21T07:56:22;93995.16;;;33.10;34.51
56052;BME280;41919;42.648;23.384;2022-08-21T07:58:47;94009.06;;;33.32;34.52
56052;BME280;41919;42.648;23.384;2022-08-21T08:01:14;93990.31;;;33.46;35.40
56052;BME280;41919;42.648;23.384;2022-08-21T08:03:40;93973.47;;;33.56;34.44
56052;BME280;41919;42.648;23.384;2022-08-21T08:06:06;94007.19;;;33.36;34.69
56052;BME280;41919;42.648;23.384;2022-08-21T08:08:33;93968.03;;;32.64;34.89
56052;BME280;41919;42.648;23.384;2022-08-21T08:10:59;94008.13;;;32.42;35.57
56052;BME280;41919;42.648;23.384;2022-08-21T08:13:26;93969.75;;;31.98;35.55
56052;BME280;41919;42.648;23.384;2022-08-21T08:15:52;93968.06;;;31.74;36.38
56052;BME280;41919;42.648;23.384;2022-08-21T08:18:17;94007.59;;;31.62;36.91
56052;BME280;41919;42.648;23.384;2022-08-21T08:20:43;93987.94;;;30.86;38.99
56052;BME280;41919;42.648;23.384;2022-08-21T08:23:13;93966.78;;;30.44;39.83
56052;BME280;41919;42.648;23.384;2022-08-21T08:25:38;94006.34;;;30.27;41.05
56052;BME280;41919;42.648;23.384;2022-08-21T08:28:05;94006.72;;;30.14;41.24
56052;BME280;41919;42.648;23.384;2022-08-21T08:30:31;93973.25;;;29.74;41.77
56052;BME280;41919;42.648;23.384;2022-08-21T08:32:56;94003.19;;;29.85;41.61
56052;BME280;41919;42.648;23.384;2022-08-21T08:35:23;93968.88;;;29.45;41.94
56052;BME280;41919;42.648;23.384;2022-08-21T08:37:48;93986.84;;;29.28;42.22
56052;BME280;41919;42.648;23.384;2022-08-21T08:40:20;94014.75;;;29.36;42.79
56052;BME280;41919;42.648;23.384;2022-08-21T08:42:47;93980.84;;;28.98;42.68
56052;BME280;41919;42.648;23.384;2022-08-21T08:45:18;94009.66;;;29.10;43.56
56052;BME280;41919;42.648;23.384;2022-08-21T08:47:48;93973.28;;;28.79;43.35
56052;BME280;41919;42.648;23.384;2022-08-21T08:50:28;94018.28;;;28.70;44.08
56052;BME280;41919;42.648;23.384;2022-08-21T08:53:06;94007.22;;;28.50;44.76
56052;BME280;41919;42.648;23.384;2022-08-21T08:55:33;94012.78;;;28.45;45.02
56052;BME280;41919;42.648;23.384;2022-08-21T08:58:00;93996.81;;;28.28;46.67
56052;BME280;41919;42.648;23.384;2022-08-21T09:00:28;94011.13;;;28.20;47.20
56052;BME280;41919;42.648;23.384;2022-08-21T09:02:56;94000.09;;;28.12;46.91
56052;BME280;41919;42.648;23.384;2022-08-21T09:05:30;93999.94;;;27.88;48.05
56052;BME280;41919;42.648;23.384;2022-08-21T09:11:31;93998.50;;;27.40;49.43
56052;BME280;41919;42.648;23.384;2022-08-21T09:26:38;93975.72;;;26.60;51.90
56052;BME280;41919;42.648;23.384;2022-08-21T09:29:06;93977.31;;;26.26;52.79
56052;BME280;41919;42.648;23.384;2022-08-21T09:31:36;93966.88;;;25.81;54.19
56052;BME280;41919;42.648;23.384;2022-08-21T09:34:10;93974.50;;;26.14;54.04
56052;BME280;41919;42.648;23.384;2022-08-21T09:36:47;93921.38;;;25.90;52.96
56052;BME280;41919;42.648;23.384;2022-08-21T09:39:23;93964.00;;;26.56;52.39
56052;BME280;41919;42.648;23.384;2022-08-21T09:41:58;93939.66;;;25.88;53.74
56052;BME280;41919;42.648;23.384;2022-08-21T09:44:26;93979.16;;;25.82;53.61
56052;BME280;41919;42.648;23.384;2022-08-21T09:46:52;93903.63;;;25.10;54.13
56052;BME280;41919;42.648;23.384;2022-08-21T09:49:27;93959.31;;;25.74;54.21
56052;BME280;41919;42.648;23.384;2022-08-21T09:51:54;93947.38;;;25.89;52.99
56052;BME280;41919;42.648;23.384;2022-08-21T09:54:30;93927.84;;;25.80;52.65
56052;BME280;41919;42.648;23.384;2022-08-21T09:57:12;93954.06;;;25.34;55.09
56052;BME280;41919;42.648;23.384;2022-08-21T10:00:27;93957.41;;;25.49;54.77
56052;BME280;41919;42.648;23.384;2022-08-21T10:03:17;93973.31;;;25.71;53.80
56052;BME280;41919;42.648;23.384;2022-08-21T10:05:55;93956.50;;;25.79;53.78
56052;BME280;41919;42.648;23.384;2022-08-21T10:08:22;93901.06;;;25.36;54.22
56052;BME280;41919;42.648;23.384;2022-08-21T10:11:01;93920.13;;;25.61;54.63
56052;BME280;41919;42.648;23.384;2022-08-21T10:13:45;93965.50;;;25.92;54.22
56052;BME280;41919;42.648;23.384;2022-08-21T10:21:57;93936.00;;;25.49;54.18
56052;BME280;41919;42.648;23.384;2022-08-21T10:30:13;93948.91;;;24.44;58.65
56052;BME280;41919;42.648;23.384;2022-08-21T10:33:12;93937.41;;;24.12;58.97
56052;BME280;41919;42.648;23.384;2022-08-21T10:35:53;93900.28;;;23.79;59.95
56052;BME280;41919;42.648;23.384;2022-08-21T10:57:02;93908.41;;;24.73;58.61
56052;BME280;41919;42.648;23.384;2022-08-21T10:59:47;93877.31;;;24.86;55.71
56052;BME280;41919;42.648;23.384;2022-08-21T11:02:20;93929.44;;;25.15;55.36
56052;BME280;41919;42.648;23.384;2022-08-21T11:04:59;93912.47;;;25.11;55.93
56052;BME280;41919;42.648;23.384;2022-08-21T11:07:31;93860.47;;;24.77;55.79
56052;BME280;41919;42.648;23.384;2022-08-21T11:10:24;93902.84;;;25.10;54.96
56052;BME280;41919;42.648;23.384;2022-08-21T11:13:01;93883.66;;;25.08;55.73
56052;BME280;41919;42.648;23.384;2022-08-21T11:18:14;93881.47;;;25.10;54.62
56052;BME280;41919;42.648;23.384;2022-08-21T11:24:02;93889.53;;;25.27;55.45
56052;BME280;41919;42.648;23.384;2022-08-21T11:29:11;93843.56;;;25.08;54.73
56052;BME280;41919;42.648;23.384;2022-08-21T11:32:14;93885.19;;;25.57;53.99
56052;BME280;41919;42.648;23.384;2022-08-21T11:43:40;93884.06;;;26.02;51.64
56052;BME280;41919;42.648;23.384;2022-08-21T11:51:10;93884.88;;;25.59;53.39
56052;BME280;41919;42.648;23.384;2022-08-21T11:53:44;93880.59;;;25.75;52.48
56052;BME280;41919;42.648;23.384;2022-08-21T11:56:22;93825.09;;;25.37;51.76
56052;BME280;41919;42.648;23.384;2022-08-21T11:58:53;93880.78;;;25.70;51.27
56052;BME280;41919;42.648;23.384;2022-08-21T12:01:25;93884.88;;;25.59;51.25
56052;BME280;41919;42.648;23.384;2022-08-21T12:04:04;93882.50;;;25.57;50.78
56052;BME280;41919;42.648;23.384;2022-08-21T12:06:37;93823.28;;;25.15;49.96
56052;BME280;41919;42.648;23.384;2022-08-21T12:09:07;93864.56;;;25.58;50.23
56052;BME280;41919;42.648;23.384;2022-08-21T12:11:49;93860.31;;;25.57;50.34
56052;BME280;41919;42.648;23.384;2022-08-21T12:14:18;93855.91;;;25.61;50.21
56052;BME280;41919;42.648;23.384;2022-08-21T12:16:46;93820.03;;;25.44;50.00
56052;BME280;41919;42.648;23.384;2022-08-21T12:24:37;93873.38;;;25.85;48.31
56052;BME280;41919;42.648;23.384;2022-08-21T12:27:27;93861.72;;;25.63;48.49
56052;BME280;41919;42.648;23.384;2022-08-21T12:30:05;93870.69;;;25.50;49.88
56052;BME280;41919;42.648;23.384;2022-08-21T12:35:14;93845.28;;;25.03;51.76
56052;BME280;41919;42.648;23.384;2022-08-21T12:38:02;93817.41;;;24.87;52.46
56052;BME280;41919;42.648;23.384;2022-08-21T12:40:39;93863.56;;;25.19;51.98
56052;BME280;41919;42.648;23.384;2022-08-21T12:43:13;93750.19;;;24.36;52.85
56052;BME280;41919;42.648;23.384;2022-08-21T12:45:44;93869.69;;;25.19;52.99
56052;BME280;41919;42.648;23.384;2022-08-21T12:53:40;93871.50;;;24.84;55.13
56052;BME280;41919;42.648;23.384;2022-08-21T12:56:12;93862.78;;;24.61;57.27
56052;BME280;41919;42.648;23.384;2022-08-21T12:58:40;93858.19;;;24.53;58.70
56052;BME280;41919;42.648;23.384;2022-08-21T13:01:33;93854.81;;;24.38;59.49
56052;BME280;41919;42.648;23.384;2022-08-21T13:04:10;93847.47;;;24.13;60.85
56052;BME280;41919;42.648;23.384;2022-08-21T13:06:39;93840.72;;;24.15;60.67
56052;BME280;41919;42.648;23.384;2022-08-21T13:09:08;93854.19;;;24.10;61.48
56052;BME280;41919;42.648;23.384;2022-08-21T13:11:35;93801.03;;;23.68;61.89
56052;BME280;41919;42.648;23.384;2022-08-21T13:14:04;93859.59;;;23.96;62.43
56052;BME280;41919;42.648;23.384;2022-08-21T13:16:30;93844.44;;;23.83;62.82
56052;BME280;41919;42.648;23.384;2022-08-21T13:18:59;93847.41;;;23.81;62.88
56052;BME280;41919;42.648;23.384;2022-08-21T13:21:40;93854.16;;;23.79;62.72
56052;BME280;41919;42.648;23.384;2022-08-21T13:24:13;93849.72;;;23.74;63.16
56052;BME280;41919;42.648;23.384;2022-08-21T13:26:39;93840.13;;;23.73;64.22
56052;BME280;41919;42.648;23.384;2022-08-21T13:29:17;93849.09;;;23.77;63.61
56052;BME280;41919;42.648;23.384;2022-08-21T13:31:57;93833.03;;;23.68;63.87
56052;BME280;41919;42.648;23.384;2022-08-21T13:34:26;93831.75;;;23.66;63.66
56052;BME280;41919;42.648;23.384;2022-08-21T13:36:58;93807.25;;;23.41;65.74
56052;BME280;41919;42.648;23.384;2022-08-21T13:39:25;93825.59;;;23.43;66.34
56052;BME280;41919;42.648;23.384;2022-08-21T13:41:54;93821.25;;;23.47;67.10
56052;BME280;41919;42.648;23.384;2022-08-21T13:44:34;93821.19;;;23.38;67.25
56052;BME280;41919;42.648;23.384;2022-08-21T13:47:02;93843.41;;;23.34;66.76
56052;BME280;41919;42.648;23.384;2022-08-21T13:49:31;93848.63;;;23.39;68.63
56052;BME280;41919;42.648;23.384;2022-08-21T13:51:58;93827.25;;;23.30;71.19
56052;BME280;41919;42.648;23.384;2022-08-21T13:54:29;93847.50;;;23.54;68.75
56052;BME280;41919;42.648;23.384;2022-08-21T13:56:58;93797.31;;;23.33;68.32
56052;BME280;41919;42.648;23.384;2022-08-21T13:59:33;93822.97;;;23.65;68.35
56052;BME280;41919;42.648;23.384;2022-08-21T14:02:20;93778.84;;;23.59;66.95
56052;BME280;41919;42.648;23.384;2022-08-21T14:05:00;93816.31;;;24.08;66.57
56052;BME280;41919;42.648;23.384;2022-08-21T14:07:31;93821.63;;;24.31;65.53
56052;BME280;41919;42.648;23.384;2022-08-21T14:10:03;93817.69;;;24.28;65.77
56052;BME280;41919;42.648;23.384;2022-08-21T14:12:35;93778.28;;;23.71;67.10
56052;BME280;41919;42.648;23.384;2022-08-21T14:15:04;93821.84;;;23.80;68.26
56052;BME280;41919;42.648;23.384;2022-08-21T14:17:38;93738.28;;;22.89;70.86
56052;BME280;41919;42.648;23.384;2022-08-21T14:20:08;93814.41;;;23.32;70.37
56052;BME280;41919;42.648;23.384;2022-08-21T14:25:07;93824.94;;;23.15;70.97
56052;BME280;41919;42.648;23.384;2022-08-21T14:27:44;93760.63;;;22.80;71.21